»·PEaware :: DAL1598 KSFO-KPSP

DAL1598 :: KSFO-KPSP

FLIGHT INFORMATION

Flight Status: Arrived
Operator:
Delta Air Lines
More flights by this operator :: More flights under this callsign
Pilot: Brian A. (9771)
Aircraft: AIRBUS A320
(A320)
More flights by this aircraft type
Origin: KSFO San Francisco Intl
United States
Destination: KPSP Palm Springs Intl
United States
More flights between these airports :: More routes between these airports
Route: WESLA3 LOSHN CLASN SIZLR3
File this flight plan on PilotEdge
Remarks:
Altitude:
(Current/Filed)
350ft
Speed:
(Current/Filed)
425kts
Departed: 11-May-18 05:21 PM
Arrived: 11-May-18 06:40 PM
Distance/Time
Traveled:
365nm/1:19
Distance/Time
To Go:
Arrived

Flight Plot

Page will automatically refresh every two minutes.

Flight plan parsing failed; only flown route is shown


Map Options




Map Legend


Flown Route
Filed Route
Departure Airport
Arrival Airport
Navaid (VOR, NDB)
Fix

Horizontal Profiles

Position Reports

Time Latitude Longitude Heading Altitude Ground
Speed
11-May-18 16:38 37.618833 -122.385797 185 27ft 0kts
11-May-18 16:39 37.618833 -122.385797 185 27ft 0kts
11-May-18 16:40 37.618833 -122.385797 185 27ft 0kts
11-May-18 16:41 37.618833 -122.385797 185 27ft 0kts
11-May-18 16:42 37.618833 -122.385797 185 27ft 0kts
11-May-18 16:43 37.618833 -122.385797 185 27ft 0kts
11-May-18 16:44 37.618833 -122.385797 185 27ft 0kts
11-May-18 16:45 37.618833 -122.385797 185 27ft 0kts
11-May-18 16:46 37.618833 -122.385797 185 27ft 0kts
11-May-18 16:47 37.618833 -122.385797 185 27ft 0kts
11-May-18 16:48 37.618833 -122.385797 185 27ft 0kts
11-May-18 16:49 37.618833 -122.385797 185 27ft 0kts
11-May-18 16:50 37.618833 -122.385797 185 27ft 0kts
11-May-18 16:51 37.618833 -122.385797 185 27ft 0kts
11-May-18 16:52 37.618833 -122.385797 185 27ft 0kts
11-May-18 16:53 37.618833 -122.385797 185 27ft 0kts
11-May-18 16:54 37.618833 -122.385797 185 27ft 0kts
11-May-18 16:55 37.618833 -122.385797 185 27ft 0kts
11-May-18 16:56 37.618833 -122.385797 185 27ft 0kts
11-May-18 16:58 37.618833 -122.385797 185 27ft 0kts
11-May-18 16:59 37.618833 -122.385797 185 27ft 0kts
11-May-18 17:00 37.618833 -122.385797 185 27ft 0kts
11-May-18 17:01 37.618833 -122.385797 185 27ft 0kts
11-May-18 17:02 37.618833 -122.385797 185 27ft 0kts
11-May-18 17:03 37.618833 -122.385797 185 27ft 0kts
11-May-18 17:04 37.618833 -122.385797 185 27ft 0kts
11-May-18 17:05 37.618933 -122.385784 188 27ft 2kts
11-May-18 17:06 37.619121 -122.385465 319 27ft 2kts
11-May-18 17:07 37.619116 -122.385460 319 27ft 0kts
11-May-18 17:08 37.619183 -122.385532 319 27ft 2kts
11-May-18 17:09 37.619518 -122.385651 11 27ft 0kts
11-May-18 17:10 37.619519 -122.385651 11 27ft 0kts
11-May-18 17:11 37.619520 -122.385651 11 27ft 0kts
11-May-18 17:12 37.619532 -122.385648 11 27ft 1kts
11-May-18 17:13 37.619849 -122.385521 20 27ft 0kts
11-May-18 17:14 37.619850 -122.385521 20 27ft 0kts
11-May-18 17:15 37.619764 -122.382221 120 27ft 17kts
11-May-18 17:16 37.616611 -122.377357 97 27ft 22kts
11-May-18 17:17 37.614574 -122.368783 136 27ft 28kts
11-May-18 17:18 37.610552 -122.360461 117 27ft 25kts
11-May-18 17:19 37.610827 -122.358979 22 27ft 0kts
11-May-18 17:20 37.611481 -122.358639 21 27ft 16kts
11-May-18 17:21 37.617340 -122.371929 294 27ft 146kts
11-May-18 17:22 37.643134 -122.431902 299 2495ft 176kts
11-May-18 17:23 37.668330 -122.489443 295 4652ft 209kts
11-May-18 17:24 37.638377 -122.557042 184 4318ft 303kts
11-May-18 17:25 37.565981 -122.510582 155 3202ft 291kts
11-May-18 17:26 37.490714 -122.473005 141 3803ft 288kts
11-May-18 17:27 37.439391 -122.395737 125 7277ft 294kts
11-May-18 17:28 37.386706 -122.314292 124 10396ft 306kts
11-May-18 17:29 37.332556 -122.229478 127 13061ft 327kts
11-May-18 17:30 37.268435 -122.131449 125 14001ft 396kts
11-May-18 17:31 37.194333 -122.017399 126 15102ft 442kts
11-May-18 17:32 37.115146 -121.895912 126 16945ft 458kts
11-May-18 17:33 37.033039 -121.770406 127 18549ft 474kts
11-May-18 17:34 36.948052 -121.640958 129 20109ft 486kts
11-May-18 17:35 36.861237 -121.509303 129 21510ft 497kts
11-May-18 17:36 36.772352 -121.374944 130 22770ft 507kts
11-May-18 17:37 36.681349 -121.237949 130 23895ft 517kts
11-May-18 17:38 36.589028 -121.099619 131 25010ft 524kts
11-May-18 17:39 36.495123 -120.959501 131 26094ft 531kts
11-May-18 17:40 36.400057 -120.817115 131 27137ft 537kts
11-May-18 17:41 36.304470 -120.674426 132 28414ft 535kts
11-May-18 17:42 36.209326 -120.532961 132 29871ft 530kts
11-May-18 17:43 36.115058 -120.393480 132 31260ft 526kts
11-May-18 17:44 36.021264 -120.255189 132 32520ft 524kts
11-May-18 17:45 35.927665 -120.117866 132 33656ft 522kts
11-May-18 17:46 35.838599 -119.977340 118 34741ft 522kts
11-May-18 17:47 35.778625 -119.815445 114 34758ft 519kts
11-May-18 17:48 35.716974 -119.654155 115 34743ft 519kts
11-May-18 17:49 35.653724 -119.496263 127 34677ft 512kts
11-May-18 17:50 35.558647 -119.366504 135 34677ft 511kts
11-May-18 17:51 35.463096 -119.236716 135 34768ft 513kts
11-May-18 17:52 35.366767 -119.108124 135 34778ft 510kts
11-May-18 17:53 35.271213 -118.980398 135 34782ft 505kts
11-May-18 17:54 35.175940 -118.854617 135 34725ft 504kts
11-May-18 17:55 35.080554 -118.728860 136 34800ft 506kts
11-May-18 17:56 34.984619 -118.602753 135 34889ft 506kts
11-May-18 17:57 34.889403 -118.478207 136 33708ft 500kts
11-May-18 17:58 34.791971 -118.351154 135 29719ft 519kts
11-May-18 17:59 34.700783 -118.212630 130 25474ft 531kts
11-May-18 18:00 34.610111 -118.072664 130 21715ft 517kts
11-May-18 18:01 34.538520 -117.926076 117 19813ft 497kts
11-May-18 18:02 34.478844 -117.779525 118 18075ft 474kts
11-May-18 18:03 34.420505 -117.637661 118 16002ft 466kts
11-May-18 18:04 34.362922 -117.496742 118 15991ft 466kts
11-May-18 18:05 34.305331 -117.356611 118 16124ft 466kts
11-May-18 18:06 34.242462 -117.219802 121 16179ft 464kts
11-May-18 18:07 34.178905 -117.084441 121 16199ft 463kts
11-May-18 18:08 34.115477 -116.949751 121 16204ft 452kts
11-May-18 18:09 34.058529 -116.827763 122 15558ft 386kts
11-May-18 18:10 34.017713 -116.717028 108 14983ft 342kts
11-May-18 18:11 33.990424 -116.612643 110 13962ft 323kts
11-May-18 18:12 33.949289 -116.518288 140 12156ft 320kts
11-May-18 18:13 33.884435 -116.446617 140 10986ft 300kts
11-May-18 18:14 33.843482 -116.366788 121 10497ft 270kts
11-May-18 18:15 33.797462 -116.297595 149 9301ft 257kts
11-May-18 18:16 33.742049 -116.315008 226 8704ft 218kts
11-May-18 18:17 33.723970 -116.378537 273 6794ft 234kts
11-May-18 18:18 33.770008 -116.455872 323 2685ft 297kts
11-May-18 18:19 33.830705 -116.507118 321 1864ft 251kts
11-May-18 18:20 33.889311 -116.550332 326 5056ft 240kts
11-May-18 18:21 33.944275 -116.589136 8 7759ft 262kts
11-May-18 18:22 33.983017 -116.505378 85 6333ft 311kts
11-May-18 18:23 33.970762 -116.414074 127 6785ft 265kts
11-May-18 18:24 33.925265 -116.334044 121 6923ft 300kts
11-May-18 18:25 33.885973 -116.242793 121 7006ft 293kts
11-May-18 18:26 33.852025 -116.161586 121 6998ft 265kts
11-May-18 18:27 33.803935 -116.109143 161 6977ft 216kts
11-May-18 18:28 33.749904 -116.077817 161 6990ft 219kts
11-May-18 18:29 33.694905 -116.052068 194 6933ft 204kts
11-May-18 18:30 33.670249 -116.099172 251 5635ft 171kts
11-May-18 18:31 33.672006 -116.156476 287 3990ft 189kts
11-May-18 18:32 33.699496 -116.205088 286 1832ft 176kts
11-May-18 18:33 33.689895 -116.251997 301 1105ft 171kts
11-May-18 18:34 33.716837 -116.301571 305 1694ft 181kts
11-May-18 18:35 33.732347 -116.361046 288 2838ft 162kts
11-May-18 18:36 33.748212 -116.408054 288 2407ft 173kts
11-May-18 18:37 33.767352 -116.453206 313 1872ft 177kts
11-May-18 18:38 33.803878 -116.485088 327 962ft 142kts
11-May-18 18:39 33.831404 -116.509144 319 491ft 70kts
11-May-18 18:40 33.833145 -116.512494 232 491ft 0kts
11-May-18 18:41 33.833144 -116.512495 232 491ft 0kts
11-May-18 18:42 33.831773 -116.511787 145 491ft 18kts
11-May-18 18:43 33.826509 -116.507063 134 491ft 29kts
11-May-18 18:44 33.823794 -116.506538 162 491ft 0kts
11-May-18 18:45 33.823794 -116.506538 162 491ft 0kts
11-May-18 18:46 33.823794 -116.506538 162 491ft 0kts

Navigation Log

Ident Type
Flight plan parsing failed, navigation log unavailable